sensor_id;sensor_type;location;lat;lon;timestamp;pressure;altitude;pressure_sealevel;temperature;humidity
75188;BME280;63762;51.334;22.108;2024-03-08T00:04:03;102634.85;;;-0.10;71.82
75188;BME280;63762;51.334;22.108;2024-03-08T00:14:11;102631.38;;;-0.18;71.56
75188;BME280;63762;51.334;22.108;2024-03-08T00:24:18;102610.24;;;-0.21;71.60
75188;BME280;63762;51.334;22.108;2024-03-08T00:34:25;102615.55;;;-0.24;71.84
75188;BME280;63762;51.334;22.108;2024-03-08T00:44:32;102598.84;;;-0.35;71.88
75188;BME280;63762;51.334;22.108;2024-03-08T00:54:39;102598.00;;;-0.40;72.09
75188;BME280;63762;51.334;22.108;2024-03-08T01:04:46;102598.02;;;-0.43;72.07
75188;BME280;63762;51.334;22.108;2024-03-08T01:14:54;102603.34;;;-0.52;72.37
75188;BME280;63762;51.334;22.108;2024-03-08T01:25:01;102587.59;;;-0.76;72.87
75188;BME280;63762;51.334;22.108;2024-03-08T01:35:08;102586.70;;;-0.73;72.78
75188;BME280;63762;51.334;22.108;2024-03-08T01:45:15;102590.25;;;-0.76;72.61
75188;BME280;63762;51.334;22.108;2024-03-08T01:55:22;102581.43;;;-0.78;72.71
75188;BME280;63762;51.334;22.108;2024-03-08T02:05:29;102577.91;;;-0.81;72.70
75188;BME280;63762;51.334;22.108;2024-03-08T02:25:50;102574.43;;;-0.86;73.04
75188;BME280;63762;51.334;22.108;2024-03-08T02:35:51;102564.78;;;-0.98;73.10
75188;BME280;63762;51.334;22.108;2024-03-08T02:45:58;102566.55;;;-1.06;73.58
75188;BME280;63762;51.334;22.108;2024-03-08T02:56:05;102554.25;;;-1.10;73.32
75188;BME280;63762;51.334;22.108;2024-03-08T03:06:13;102555.19;;;-1.38;74.48
75188;BME280;63762;51.334;22.108;2024-03-08T03:16:20;102547.25;;;-1.29;73.66
75188;BME280;63762;51.334;22.108;2024-03-08T03:26:26;102540.22;;;-1.30;73.28
75188;BME280;63762;51.334;22.108;2024-03-08T03:36:34;102543.77;;;-1.37;74.01
75188;BME280;63762;51.334;22.108;2024-03-08T03:46:43;102547.25;;;-1.32;73.65
75188;BME280;63762;51.334;22.108;2024-03-08T03:56:48;102534.95;;;-1.31;73.29
75188;BME280;63762;51.334;22.108;2024-03-08T04:06:55;102534.05;;;-1.36;73.11
75188;BME280;63762;51.334;22.108;2024-03-08T04:17:02;102520.02;;;-1.40;72.90
75188;BME280;63762;51.334;22.108;2024-03-08T04:27:09;102523.52;;;-1.44;72.88
75188;BME280;63762;51.334;22.108;2024-03-08T04:37:16;102535.87;;;-1.47;72.86
75188;BME280;63762;51.334;22.108;2024-03-08T04:47:24;102513.87;;;-1.51;72.74
75188;BME280;63762;51.334;22.108;2024-03-08T04:57:31;102520.03;;;-1.53;72.85
75188;BME280;63762;51.334;22.108;2024-03-08T05:07:40;102536.77;;;-1.56;72.82
75188;BME280;63762;51.334;22.108;2024-03-08T05:17:45;102540.25;;;-1.54;72.71
75188;BME280;63762;51.334;22.108;2024-03-08T05:27:52;102525.30;;;-1.50;73.21
75188;BME280;63762;51.334;22.108;2024-03-08T05:37:59;102531.48;;;-1.47;73.53
75188;BME280;63762;51.334;22.108;2024-03-08T05:48:07;102534.96;;;-1.33;73.91
75188;BME280;63762;51.334;22.108;2024-03-08T05:58:13;102526.11;;;-1.17;74.52
75188;BME280;63762;51.334;22.108;2024-03-08T06:08:21;102528.65;;;-0.93;74.94
75188;BME280;63762;51.334;22.108;2024-03-08T06:18:28;102532.92;;;-0.62;75.21
75188;BME280;63762;51.334;22.108;2024-03-08T06:28:36;102532.64;;;-0.17;75.40
75188;BME280;63762;51.334;22.108;2024-03-08T06:38:42;102541.23;;;0.13;75.68
75188;BME280;63762;51.334;22.108;2024-03-08T06:51:55;102537.66;;;0.17;76.82
75188;BME280;63762;51.334;22.108;2024-03-08T07:02:02;102524.98;;;0.52;75.84
75188;BME280;63762;51.334;22.108;2024-03-08T07:12:10;102534.16;;;1.01;74.00
75188;BME280;63762;51.334;22.108;2024-03-08T07:22:17;102539.32;;;1.13;74.04
75188;BME280;63762;51.334;22.108;2024-03-08T07:32:25;102528.98;;;1.60;72.85
75188;BME280;63762;51.334;22.108;2024-03-08T07:42:31;102519.38;;;2.07;74.01
75188;BME280;63762;51.334;22.108;2024-03-08T07:52:38;102521.89;;;2.65;70.64
75188;BME280;63762;51.334;22.108;2024-03-08T08:02:45;102523.48;;;2.75;69.47
75188;BME280;63762;51.334;22.108;2024-03-08T08:12:52;102525.24;;;3.19;70.49
75188;BME280;63762;51.334;22.108;2024-03-08T08:23:00;102523.73;;;3.48;69.53
75188;BME280;63762;51.334;22.108;2024-03-08T08:33:07;102507.16;;;3.74;68.36
75188;BME280;63762;51.334;22.108;2024-03-08T08:43:14;102503.16;;;4.61;65.08
75188;BME280;63762;51.334;22.108;2024-03-08T08:53:21;102501.63;;;5.16;65.35
75188;BME280;63762;51.334;22.108;2024-03-08T09:03:28;102496.45;;;6.23;63.59
75188;BME280;63762;51.334;22.108;2024-03-08T09:13:35;102477.41;;;6.82;57.22
75188;BME280;63762;51.334;22.108;2024-03-08T09:23:42;102470.84;;;6.91;56.03
75188;BME280;63762;51.334;22.108;2024-03-08T09:33:50;102470.79;;;7.62;54.92
75188;BME280;63762;51.334;22.108;2024-03-08T09:43:57;102459.55;;;7.52;49.71
75188;BME280;63762;51.334;22.108;2024-03-08T09:54:04;102454.48;;;7.89;48.27
75188;BME280;63762;51.334;22.108;2024-03-08T10:04:11;102448.17;;;7.90;47.38
75188;BME280;63762;51.334;22.108;2024-03-08T10:14:18;102438.95;;;8.17;51.72
75188;BME280;63762;51.334;22.108;2024-03-08T10:24:26;102432.10;;;8.32;49.50
75188;BME280;63762;51.334;22.108;2024-03-08T10:34:33;102431.63;;;8.62;48.99
75188;BME280;63762;51.334;22.108;2024-03-08T10:55:08;102418.98;;;9.42;51.06
75188;BME280;63762;51.334;22.108;2024-03-08T11:05:37;102409.68;;;10.20;48.84
75188;BME280;63762;51.334;22.108;2024-03-08T11:15:29;102389.22;;;9.99;44.75
75188;BME280;63762;51.334;22.108;2024-03-08T11:25:38;102380.56;;;10.11;48.32
75188;BME280;63762;51.334;22.108;2024-03-08T11:35:51;102377.36;;;10.71;43.17
75188;BME280;63762;51.334;22.108;2024-03-08T11:56:16;102354.21;;;11.15;45.38
75188;BME280;63762;51.334;22.108;2024-03-08T12:06:17;102346.50;;;11.71;42.89
75188;BME280;63762;51.334;22.108;2024-03-08T12:16:18;102339.16;;;11.89;38.92
75188;BME280;63762;51.334;22.108;2024-03-08T12:26:25;102340.00;;;11.89;41.86
75188;BME280;63762;51.334;22.108;2024-03-08T12:36:27;102331.02;;;12.18;38.15
75188;BME280;63762;51.334;22.108;2024-03-08T12:46:29;102305.70;;;11.77;44.68
75188;BME280;63762;51.334;22.108;2024-03-08T12:56:32;102304.55;;;12.25;40.34
75188;BME280;63762;51.334;22.108;2024-03-08T13:06:34;102294.45;;;12.28;37.13
75188;BME280;63762;51.334;22.108;2024-03-08T13:16:35;102291.15;;;11.19;39.25
75188;BME280;63762;51.334;22.108;2024-03-08T13:26:36;102270.27;;;11.38;41.30
75188;BME280;63762;51.334;22.108;2024-03-08T13:36:41;102258.21;;;11.14;42.29
75188;BME280;63762;51.334;22.108;2024-03-08T13:46:48;102263.24;;;11.20;41.15
75188;BME280;63762;51.334;22.108;2024-03-08T13:56:55;102246.16;;;10.90;42.22
75188;BME280;63762;51.334;22.108;2024-03-08T14:07:02;102241.45;;;10.78;40.18
75188;BME280;63762;51.334;22.108;2024-03-08T14:17:09;102237.59;;;11.28;40.40
75188;BME280;63762;51.334;22.108;2024-03-08T14:27:16;102236.42;;;11.03;40.26
75188;BME280;63762;51.334;22.108;2024-03-08T14:37:23;102210.88;;;10.79;41.01
75188;BME280;63762;51.334;22.108;2024-03-08T14:47:31;102208.39;;;11.37;38.59
75188;BME280;63762;51.334;22.108;2024-03-08T14:57:38;102204.86;;;12.64;36.19
75188;BME280;63762;51.334;22.108;2024-03-08T15:07:45;102201.70;;;12.01;37.96
75188;BME280;63762;51.334;22.108;2024-03-08T15:17:52;102187.02;;;11.33;37.12
75188;BME280;63762;51.334;22.108;2024-03-08T15:27:59;102188.91;;;12.05;36.76
75188;BME280;63762;51.334;22.108;2024-03-08T15:38:06;102189.15;;;11.13;36.50
75188;BME280;63762;51.334;22.108;2024-03-08T15:48:13;102195.24;;;10.39;40.23
75188;BME280;63762;51.334;22.108;2024-03-08T15:58:20;102183.64;;;9.89;42.46
75188;BME280;63762;51.334;22.108;2024-03-08T16:08:27;102195.08;;;9.43;43.84
75188;BME280;63762;51.334;22.108;2024-03-08T16:18:35;102191.88;;;9.00;44.82
75188;BME280;63762;51.334;22.108;2024-03-08T16:28:42;102189.79;;;8.53;45.70
75188;BME280;63762;51.334;22.108;2024-03-08T16:38:49;102186.27;;;8.14;46.67
75188;BME280;63762;51.334;22.108;2024-03-08T16:48:56;102196.05;;;7.76;47.96
75188;BME280;63762;51.334;22.108;2024-03-08T16:59:03;102197.77;;;7.37;48.28
75188;BME280;63762;51.334;22.108;2024-03-08T17:09:10;102194.23;;;7.17;49.20
75188;BME280;63762;51.334;22.108;2024-03-08T17:19:17;102191.00;;;6.87;50.18
75188;BME280;63762;51.334;22.108;2024-03-08T17:29:25;102186.40;;;6.69;50.66
75188;BME280;63762;51.334;22.108;2024-03-08T17:39:32;102184.19;;;6.35;51.93
75188;BME280;63762;51.334;22.108;2024-03-08T17:49:39;102187.59;;;6.17;52.36
75188;BME280;63762;51.334;22.108;2024-03-08T17:59:46;102186.32;;;5.80;53.77
75188;BME280;63762;51.334;22.108;2024-03-08T18:09:53;102184.79;;;5.48;54.13
75188;BME280;63762;51.334;22.108;2024-03-08T18:20:00;102174.63;;;5.35;54.22
75188;BME280;63762;51.334;22.108;2024-03-08T18:30:08;102170.59;;;5.23;55.21
75188;BME280;63762;51.334;22.108;2024-03-08T18:40:20;102168.98;;;4.92;56.12
75188;BME280;63762;51.334;22.108;2024-03-08T18:50:25;102166.12;;;4.72;56.42
75188;BME280;63762;51.334;22.108;2024-03-08T19:10:54;102160.95;;;4.39;56.80
75188;BME280;63762;51.334;22.108;2024-03-08T19:20:57;102159.95;;;4.14;57.79
75188;BME280;63762;51.334;22.108;2024-03-08T19:30:59;102164.75;;;4.03;58.54
75188;BME280;63762;51.334;22.108;2024-03-08T19:41:00;102158.04;;;3.90;58.87
75188;BME280;63762;51.334;22.108;2024-03-08T19:51:05;102163.07;;;3.70;59.59
75188;BME280;63762;51.334;22.108;2024-03-08T20:01:12;102164.67;;;3.45;60.88
75188;BME280;63762;51.334;22.108;2024-03-08T20:11:19;102164.10;;;3.34;61.44
75188;BME280;63762;51.334;22.108;2024-03-08T20:21:26;102160.60;;;3.32;62.10
75188;BME280;63762;51.334;22.108;2024-03-08T20:41:58;102164.05;;;3.04;62.83
75188;BME280;63762;51.334;22.108;2024-03-08T20:51:59;102150.95;;;2.96;63.49
75188;BME280;63762;51.334;22.108;2024-03-08T21:02:00;102152.98;;;2.85;63.99
75188;BME280;63762;51.334;22.108;2024-03-08T21:12:02;102160.22;;;2.80;63.99
75188;BME280;63762;51.334;22.108;2024-03-08T21:22:09;102157.85;;;2.68;64.41
75188;BME280;63762;51.334;22.108;2024-03-08T21:32:23;102143.05;;;2.58;64.21
75188;BME280;63762;51.334;22.108;2024-03-08T21:42:25;102130.13;;;2.43;64.67
75188;BME280;63762;51.334;22.108;2024-03-08T21:52:31;102129.38;;;2.38;65.01
75188;BME280;63762;51.334;22.108;2024-03-08T22:02:42;102132.21;;;2.30;65.52
75188;BME280;63762;51.334;22.108;2024-03-08T22:12:49;102123.84;;;2.10;65.79
75188;BME280;63762;51.334;22.108;2024-03-08T22:22:52;102115.16;;;2.02;65.85
75188;BME280;63762;51.334;22.108;2024-03-08T22:32:59;102111.84;;;1.94;65.91
75188;BME280;63762;51.334;22.108;2024-03-08T22:43:06;102121.81;;;1.82;65.94
75188;BME280;63762;51.334;22.108;2024-03-08T22:53:14;102105.21;;;1.74;66.13
75188;BME280;63762;51.334;22.108;2024-03-08T23:03:20;102110.76;;;1.62;66.77
75188;BME280;63762;51.334;22.108;2024-03-08T23:13:27;102120.67;;;1.54;67.23
75188;BME280;63762;51.334;22.108;2024-03-08T23:23:35;102116.28;;;1.51;67.68
75188;BME280;63762;51.334;22.108;2024-03-08T23:33:41;102111.03;;;1.48;67.83
75188;BME280;63762;51.334;22.108;2024-03-08T23:43:49;102109.54;;;1.35;67.82
75188;BME280;63762;51.334;22.108;2024-03-08T23:53:56;102102.70;;;1.24;67.93
